sensor_id;sensor_type;location;lat;lon;timestamp;P1;durP1;ratioP1;P2;durP2;ratioP2
23608;SDS011;11982;50.810;4.442;2024-02-26T00:00:34;3.13;;;1.80;;
23608;SDS011;11982;50.810;4.442;2024-02-26T00:03:00;6.50;;;2.63;;
23608;SDS011;11982;50.810;4.442;2024-02-26T00:05:26;4.45;;;2.20;;
23608;SDS011;11982;50.810;4.442;2024-02-26T00:07:52;4.78;;;2.08;;
23608;SDS011;11982;50.810;4.442;2024-02-26T00:10:17;5.22;;;2.28;;
23608;SDS011;11982;50.810;4.442;2024-02-26T00:12:43;3.83;;;2.13;;
23608;SDS011;11982;50.810;4.442;2024-02-26T00:15:09;8.30;;;2.55;;
23608;SDS011;11982;50.810;4.442;2024-02-26T00:17:35;6.93;;;2.05;;
23608;SDS011;11982;50.810;4.442;2024-02-26T00:20:04;4.10;;;2.40;;
23608;SDS011;11982;50.810;4.442;2024-02-26T00:22:33;5.10;;;2.20;;
23608;SDS011;11982;50.810;4.442;2024-02-26T00:24:59;4.80;;;2.03;;
23608;SDS011;11982;50.810;4.442;2024-02-26T00:27:25;5.40;;;2.15;;
23608;SDS011;11982;50.810;4.442;2024-02-26T00:29:51;9.18;;;2.70;;
23608;SDS011;11982;50.810;4.442;2024-02-26T00:32:16;11.45;;;2.45;;
23608;SDS011;11982;50.810;4.442;2024-02-26T00:34:42;10.45;;;2.45;;
23608;SDS011;11982;50.810;4.442;2024-02-26T00:37:07;6.40;;;2.50;;
23608;SDS011;11982;50.810;4.442;2024-02-26T00:39:33;3.85;;;2.10;;
23608;SDS011;11982;50.810;4.442;2024-02-26T00:41:59;8.52;;;2.28;;
23608;SDS011;11982;50.810;4.442;2024-02-26T00:44:24;8.50;;;2.58;;
23608;SDS011;11982;50.810;4.442;2024-02-26T00:46:50;5.07;;;2.25;;
23608;SDS011;11982;50.810;4.442;2024-02-26T00:49:18;4.18;;;2.40;;
23608;SDS011;11982;50.810;4.442;2024-02-26T00:51:44;3.28;;;2.20;;
23608;SDS011;11982;50.810;4.442;2024-02-26T00:54:10;6.43;;;2.08;;
23608;SDS011;11982;50.810;4.442;2024-02-26T00:56:35;4.60;;;2.45;;
23608;SDS011;11982;50.810;4.442;2024-02-26T00:59:01;8.23;;;2.22;;
23608;SDS011;11982;50.810;4.442;2024-02-26T01:01:26;2.90;;;2.20;;
23608;SDS011;11982;50.810;4.442;2024-02-26T01:03:52;5.25;;;2.05;;
23608;SDS011;11982;50.810;4.442;2024-02-26T01:06:18;4.03;;;2.33;;
23608;SDS011;11982;50.810;4.442;2024-02-26T01:08:43;3.30;;;1.90;;
23608;SDS011;11982;50.810;4.442;2024-02-26T01:11:09;4.25;;;2.40;;
23608;SDS011;11982;50.810;4.442;2024-02-26T01:13:35;4.10;;;1.70;;
23608;SDS011;11982;50.810;4.442;2024-02-26T01:16:00;4.03;;;2.15;;
23608;SDS011;11982;50.810;4.442;2024-02-26T01:18:26;6.07;;;2.45;;
23608;SDS011;11982;50.810;4.442;2024-02-26T01:20:52;3.60;;;2.28;;
23608;SDS011;11982;50.810;4.442;2024-02-26T01:23:19;4.93;;;2.08;;
23608;SDS011;11982;50.810;4.442;2024-02-26T01:25:45;2.47;;;2.22;;
23608;SDS011;11982;50.810;4.442;2024-02-26T01:28:11;7.90;;;2.42;;
23608;SDS011;11982;50.810;4.442;2024-02-26T01:30:36;4.93;;;2.33;;
23608;SDS011;11982;50.810;4.442;2024-02-26T01:33:02;4.38;;;1.90;;
23608;SDS011;11982;50.810;4.442;2024-02-26T01:35:28;9.05;;;2.60;;
23608;SDS011;11982;50.810;4.442;2024-02-26T01:37:54;5.65;;;2.55;;
23608;SDS011;11982;50.810;4.442;2024-02-26T01:40:20;5.40;;;2.60;;
23608;SDS011;11982;50.810;4.442;2024-02-26T01:42:46;4.38;;;2.17;;
23608;SDS011;11982;50.810;4.442;2024-02-26T01:45:16;5.13;;;2.00;;
23608;SDS011;11982;50.810;4.442;2024-02-26T01:47:51;6.63;;;2.28;;
23608;SDS011;11982;50.810;4.442;2024-02-26T01:50:18;6.65;;;2.42;;
23608;SDS011;11982;50.810;4.442;2024-02-26T01:52:47;4.57;;;2.05;;
23608;SDS011;11982;50.810;4.442;2024-02-26T01:55:15;5.43;;;2.17;;
23608;SDS011;11982;50.810;4.442;2024-02-26T01:57:42;5.03;;;2.10;;
23608;SDS011;11982;50.810;4.442;2024-02-26T02:00:10;4.05;;;2.08;;
23608;SDS011;11982;50.810;4.442;2024-02-26T02:02:37;6.10;;;2.40;;
23608;SDS011;11982;50.810;4.442;2024-02-26T02:05:05;6.05;;;2.55;;
23608;SDS011;11982;50.810;4.442;2024-02-26T02:07:32;4.53;;;1.95;;
23608;SDS011;11982;50.810;4.442;2024-02-26T02:09:59;6.15;;;1.70;;
23608;SDS011;11982;50.810;4.442;2024-02-26T02:12:25;5.18;;;1.80;;
23608;SDS011;11982;50.810;4.442;2024-02-26T02:14:51;5.97;;;1.58;;
23608;SDS011;11982;50.810;4.442;2024-02-26T02:17:17;3.00;;;1.70;;
23608;SDS011;11982;50.810;4.442;2024-02-26T02:19:43;6.85;;;1.77;;
23608;SDS011;11982;50.810;4.442;2024-02-26T02:22:08;3.30;;;1.73;;
23608;SDS011;11982;50.810;4.442;2024-02-26T02:24:34;3.45;;;1.73;;
23608;SDS011;11982;50.810;4.442;2024-02-26T02:27:00;3.08;;;1.80;;
23608;SDS011;11982;50.810;4.442;2024-02-26T02:29:25;6.82;;;1.60;;
23608;SDS011;11982;50.810;4.442;2024-02-26T02:34:43;3.20;;;1.65;;
23608;SDS011;11982;50.810;4.442;2024-02-26T02:37:09;5.07;;;1.70;;
23608;SDS011;11982;50.810;4.442;2024-02-26T02:39:35;3.35;;;1.55;;
23608;SDS011;11982;50.810;4.442;2024-02-26T02:42:00;2.42;;;1.83;;
23608;SDS011;11982;50.810;4.442;2024-02-26T02:44:26;4.05;;;1.73;;
23608;SDS011;11982;50.810;4.442;2024-02-26T02:46:51;2.05;;;1.77;;
23608;SDS011;11982;50.810;4.442;2024-02-26T02:49:18;8.57;;;2.33;;
23608;SDS011;11982;50.810;4.442;2024-02-26T02:51:44;3.72;;;2.00;;
23608;SDS011;11982;50.810;4.442;2024-02-26T02:54:09;3.75;;;2.05;;
23608;SDS011;11982;50.810;4.442;2024-02-26T02:56:35;5.38;;;2.00;;
23608;SDS011;11982;50.810;4.442;2024-02-26T02:59:01;3.08;;;1.77;;
23608;SDS011;11982;50.810;4.442;2024-02-26T03:01:27;3.58;;;1.90;;
23608;SDS011;11982;50.810;4.442;2024-02-26T03:03:53;3.95;;;2.33;;
23608;SDS011;11982;50.810;4.442;2024-02-26T03:06:18;2.55;;;1.95;;
23608;SDS011;11982;50.810;4.442;2024-02-26T03:08:46;2.63;;;2.03;;
23608;SDS011;11982;50.810;4.442;2024-02-26T03:11:14;5.85;;;2.15;;
23608;SDS011;11982;50.810;4.442;2024-02-26T03:13:41;4.22;;;2.00;;
23608;SDS011;11982;50.810;4.442;2024-02-26T03:16:06;3.50;;;2.10;;
23608;SDS011;11982;50.810;4.442;2024-02-26T03:18:32;3.35;;;1.95;;
23608;SDS011;11982;50.810;4.442;2024-02-26T03:20:59;5.28;;;2.13;;
23608;SDS011;11982;50.810;4.442;2024-02-26T03:23:25;2.55;;;2.17;;
23608;SDS011;11982;50.810;4.442;2024-02-26T03:25:50;3.15;;;2.40;;
23608;SDS011;11982;50.810;4.442;2024-02-26T03:28:16;4.10;;;2.08;;
23608;SDS011;11982;50.810;4.442;2024-02-26T03:30:41;7.38;;;2.60;;
23608;SDS011;11982;50.810;4.442;2024-02-26T03:33:07;13.40;;;2.65;;
23608;SDS011;11982;50.810;4.442;2024-02-26T03:35:33;5.43;;;2.40;;
23608;SDS011;11982;50.810;4.442;2024-02-26T03:37:58;5.35;;;2.80;;
23608;SDS011;11982;50.810;4.442;2024-02-26T03:40:24;4.45;;;2.28;;
23608;SDS011;11982;50.810;4.442;2024-02-26T03:42:50;3.08;;;2.30;;
23608;SDS011;11982;50.810;4.442;2024-02-26T03:45:17;4.30;;;2.53;;
23608;SDS011;11982;50.810;4.442;2024-02-26T03:47:43;4.78;;;2.40;;
23608;SDS011;11982;50.810;4.442;2024-02-26T03:50:09;5.88;;;2.42;;
23608;SDS011;11982;50.810;4.442;2024-02-26T03:52:35;3.85;;;2.30;;
23608;SDS011;11982;50.810;4.442;2024-02-26T03:55:00;4.35;;;2.45;;
23608;SDS011;11982;50.810;4.442;2024-02-26T03:57:26;6.35;;;2.75;;
23608;SDS011;11982;50.810;4.442;2024-02-26T03:59:51;3.33;;;2.30;;
23608;SDS011;11982;50.810;4.442;2024-02-26T04:02:17;6.53;;;3.13;;
23608;SDS011;11982;50.810;4.442;2024-02-26T04:04:45;4.28;;;2.90;;
23608;SDS011;11982;50.810;4.442;2024-02-26T04:07:11;4.43;;;2.53;;
23608;SDS011;11982;50.810;4.442;2024-02-26T04:09:38;5.20;;;3.10;;
23608;SDS011;11982;50.810;4.442;2024-02-26T04:12:03;4.90;;;3.58;;
23608;SDS011;11982;50.810;4.442;2024-02-26T04:14:29;4.90;;;3.53;;
23608;SDS011;11982;50.810;4.442;2024-02-26T04:16:55;8.05;;;4.10;;
23608;SDS011;11982;50.810;4.442;2024-02-26T04:19:21;4.45;;;3.20;;
23608;SDS011;11982;50.810;4.442;2024-02-26T04:21:46;6.13;;;4.10;;
23608;SDS011;11982;50.810;4.442;2024-02-26T04:24:12;9.23;;;3.97;;
23608;SDS011;11982;50.810;4.442;2024-02-26T04:26:37;8.60;;;4.53;;
23608;SDS011;11982;50.810;4.442;2024-02-26T04:29:03;6.07;;;4.05;;
23608;SDS011;11982;50.810;4.442;2024-02-26T04:31:29;8.05;;;5.38;;
23608;SDS011;11982;50.810;4.442;2024-02-26T04:33:56;6.53;;;4.60;;
23608;SDS011;11982;50.810;4.442;2024-02-26T04:36:22;9.45;;;4.10;;
23608;SDS011;11982;50.810;4.442;2024-02-26T04:38:47;7.35;;;5.03;;
23608;SDS011;11982;50.810;4.442;2024-02-26T04:41:13;6.80;;;5.07;;
23608;SDS011;11982;50.810;4.442;2024-02-26T04:43:38;7.40;;;5.13;;
23608;SDS011;11982;50.810;4.442;2024-02-26T04:46:09;9.10;;;5.53;;
23608;SDS011;11982;50.810;4.442;2024-02-26T04:48:35;8.95;;;5.25;;
23608;SDS011;11982;50.810;4.442;2024-02-26T04:51:01;7.95;;;5.55;;
23608;SDS011;11982;50.810;4.442;2024-02-26T04:53:28;10.23;;;5.57;;
23608;SDS011;11982;50.810;4.442;2024-02-26T04:55:53;9.35;;;5.80;;
23608;SDS011;11982;50.810;4.442;2024-02-26T04:58:19;13.32;;;6.40;;
23608;SDS011;11982;50.810;4.442;2024-02-26T05:00:45;11.20;;;6.38;;
23608;SDS011;11982;50.810;4.442;2024-02-26T05:03:10;14.77;;;7.07;;
23608;SDS011;11982;50.810;4.442;2024-02-26T05:05:40;12.48;;;7.22;;
23608;SDS011;11982;50.810;4.442;2024-02-26T05:08:09;12.52;;;8.32;;
23608;SDS011;11982;50.810;4.442;2024-02-26T05:10:35;12.10;;;7.95;;
23608;SDS011;11982;50.810;4.442;2024-02-26T05:13:04;14.20;;;8.23;;
23608;SDS011;11982;50.810;4.442;2024-02-26T05:15:30;11.50;;;8.27;;
23608;SDS011;11982;50.810;4.442;2024-02-26T05:17:56;14.27;;;9.00;;
23608;SDS011;11982;50.810;4.442;2024-02-26T05:20:21;14.02;;;8.93;;
23608;SDS011;11982;50.810;4.442;2024-02-26T05:22:47;16.48;;;9.77;;
23608;SDS011;11982;50.810;4.442;2024-02-26T05:25:15;13.88;;;8.70;;
23608;SDS011;11982;50.810;4.442;2024-02-26T05:27:42;14.63;;;9.90;;
23608;SDS011;11982;50.810;4.442;2024-02-26T05:30:09;15.45;;;9.60;;
23608;SDS011;11982;50.810;4.442;2024-02-26T05:32:35;16.70;;;10.20;;
23608;SDS011;11982;50.810;4.442;2024-02-26T05:35:01;15.10;;;9.60;;
23608;SDS011;11982;50.810;4.442;2024-02-26T05:37:28;21.23;;;10.13;;
23608;SDS011;11982;50.810;4.442;2024-02-26T05:39:54;24.20;;;10.55;;
23608;SDS011;11982;50.810;4.442;2024-02-26T05:42:20;19.48;;;10.63;;
23608;SDS011;11982;50.810;4.442;2024-02-26T05:44:45;18.50;;;11.30;;
23608;SDS011;11982;50.810;4.442;2024-02-26T05:47:11;19.52;;;11.02;;
23608;SDS011;11982;50.810;4.442;2024-02-26T05:49:38;22.77;;;11.98;;
23608;SDS011;11982;50.810;4.442;2024-02-26T05:52:04;20.88;;;12.10;;
23608;SDS011;11982;50.810;4.442;2024-02-26T05:54:30;19.92;;;12.55;;
23608;SDS011;11982;50.810;4.442;2024-02-26T05:56:56;22.08;;;11.43;;
23608;SDS011;11982;50.810;4.442;2024-02-26T05:59:22;23.63;;;13.98;;
23608;SDS011;11982;50.810;4.442;2024-02-26T06:01:47;20.27;;;11.55;;
23608;SDS011;11982;50.810;4.442;2024-02-26T06:04:13;27.70;;;15.80;;
23608;SDS011;11982;50.810;4.442;2024-02-26T06:06:39;30.23;;;16.70;;
23608;SDS011;11982;50.810;4.442;2024-02-26T06:09:05;27.00;;;16.50;;
23608;SDS011;11982;50.810;4.442;2024-02-26T06:11:31;32.88;;;17.73;;
23608;SDS011;11982;50.810;4.442;2024-02-26T06:13:56;31.73;;;18.60;;
23608;SDS011;11982;50.810;4.442;2024-02-26T06:16:22;34.47;;;18.58;;
23608;SDS011;11982;50.810;4.442;2024-02-26T06:18:48;35.35;;;20.58;;
23608;SDS011;11982;50.810;4.442;2024-02-26T06:21:13;36.95;;;17.70;;
23608;SDS011;11982;50.810;4.442;2024-02-26T06:23:39;30.63;;;19.15;;
23608;SDS011;11982;50.810;4.442;2024-02-26T06:26:05;37.40;;;20.90;;
23608;SDS011;11982;50.810;4.442;2024-02-26T06:28:31;32.35;;;19.30;;
23608;SDS011;11982;50.810;4.442;2024-02-26T06:30:58;32.67;;;19.20;;
23608;SDS011;11982;50.810;4.442;2024-02-26T06:33:24;30.90;;;19.58;;
23608;SDS011;11982;50.810;4.442;2024-02-26T06:35:50;34.17;;;19.67;;
23608;SDS011;11982;50.810;4.442;2024-02-26T06:38:15;35.72;;;18.30;;
23608;SDS011;11982;50.810;4.442;2024-02-26T06:40:42;34.42;;;20.30;;
23608;SDS011;11982;50.810;4.442;2024-02-26T06:43:08;33.05;;;19.85;;
23608;SDS011;11982;50.810;4.442;2024-02-26T06:45:34;31.75;;;19.17;;
23608;SDS011;11982;50.810;4.442;2024-02-26T06:48:00;34.38;;;21.65;;
23608;SDS011;11982;50.810;4.442;2024-02-26T06:50:25;36.45;;;21.23;;
23608;SDS011;11982;50.810;4.442;2024-02-26T06:52:51;31.00;;;19.48;;
23608;SDS011;11982;50.810;4.442;2024-02-26T06:55:17;28.02;;;18.13;;
23608;SDS011;11982;50.810;4.442;2024-02-26T06:57:45;29.58;;;20.73;;
23608;SDS011;11982;50.810;4.442;2024-02-26T07:00:11;32.45;;;19.38;;
23608;SDS011;11982;50.810;4.442;2024-02-26T07:02:41;31.73;;;19.67;;
23608;SDS011;11982;50.810;4.442;2024-02-26T07:05:07;32.35;;;21.30;;
23608;SDS011;11982;50.810;4.442;2024-02-26T07:07:34;29.38;;;18.13;;
23608;SDS011;11982;50.810;4.442;2024-02-26T07:09:59;32.95;;;20.70;;
23608;SDS011;11982;50.810;4.442;2024-02-26T07:12:28;37.63;;;22.35;;
23608;SDS011;11982;50.810;4.442;2024-02-26T07:14:56;32.15;;;19.83;;
23608;SDS011;11982;50.810;4.442;2024-02-26T07:17:23;35.55;;;21.38;;
23608;SDS011;11982;50.810;4.442;2024-02-26T07:19:49;35.35;;;21.20;;
23608;SDS011;11982;50.810;4.442;2024-02-26T07:22:14;33.75;;;22.23;;
23608;SDS011;11982;50.810;4.442;2024-02-26T07:24:40;32.67;;;21.38;;
23608;SDS011;11982;50.810;4.442;2024-02-26T07:27:06;30.40;;;20.50;;
23608;SDS011;11982;50.810;4.442;2024-02-26T07:29:32;34.88;;;20.95;;
23608;SDS011;11982;50.810;4.442;2024-02-26T07:31:58;28.83;;;17.50;;
23608;SDS011;11982;50.810;4.442;2024-02-26T07:34:24;32.28;;;19.33;;
23608;SDS011;11982;50.810;4.442;2024-02-26T07:36:54;38.75;;;22.58;;
23608;SDS011;11982;50.810;4.442;2024-02-26T07:39:22;39.03;;;23.15;;
23608;SDS011;11982;50.810;4.442;2024-02-26T07:41:48;37.88;;;22.27;;
23608;SDS011;11982;50.810;4.442;2024-02-26T07:44:16;36.05;;;21.42;;
23608;SDS011;11982;50.810;4.442;2024-02-26T07:46:42;33.67;;;20.00;;
23608;SDS011;11982;50.810;4.442;2024-02-26T07:49:08;30.38;;;19.40;;
23608;SDS011;11982;50.810;4.442;2024-02-26T07:51:33;31.05;;;19.55;;
23608;SDS011;11982;50.810;4.442;2024-02-26T07:54:00;30.88;;;17.33;;
23608;SDS011;11982;50.810;4.442;2024-02-26T07:56:26;31.67;;;21.98;;
23608;SDS011;11982;50.810;4.442;2024-02-26T07:58:51;37.78;;;22.27;;
23608;SDS011;11982;50.810;4.442;2024-02-26T08:01:17;36.45;;;22.52;;
23608;SDS011;11982;50.810;4.442;2024-02-26T08:03:42;32.33;;;20.75;;
23608;SDS011;11982;50.810;4.442;2024-02-26T08:06:08;33.53;;;18.10;;
23608;SDS011;11982;50.810;4.442;2024-02-26T08:08:34;34.08;;;21.50;;
23608;SDS011;11982;50.810;4.442;2024-02-26T08:10:59;37.63;;;21.05;;
23608;SDS011;11982;50.810;4.442;2024-02-26T08:13:25;35.70;;;20.60;;
23608;SDS011;11982;50.810;4.442;2024-02-26T08:15:51;30.83;;;20.10;;
23608;SDS011;11982;50.810;4.442;2024-02-26T08:18:17;28.48;;;18.52;;
23608;SDS011;11982;50.810;4.442;2024-02-26T08:20:43;29.33;;;19.02;;
23608;SDS011;11982;50.810;4.442;2024-02-26T08:23:08;28.27;;;17.73;;
23608;SDS011;11982;50.810;4.442;2024-02-26T08:25:34;34.13;;;20.98;;
23608;SDS011;11982;50.810;4.442;2024-02-26T08:27:59;32.60;;;19.48;;
23608;SDS011;11982;50.810;4.442;2024-02-26T08:30:25;26.63;;;17.90;;
23608;SDS011;11982;50.810;4.442;2024-02-26T08:32:51;24.52;;;15.32;;
23608;SDS011;11982;50.810;4.442;2024-02-26T08:35:17;27.67;;;17.77;;
23608;SDS011;11982;50.810;4.442;2024-02-26T08:37:46;27.70;;;17.73;;
23608;SDS011;11982;50.810;4.442;2024-02-26T08:40:13;25.65;;;16.67;;
23608;SDS011;11982;50.810;4.442;2024-02-26T08:42:39;35.03;;;16.92;;
23608;SDS011;11982;50.810;4.442;2024-02-26T08:45:05;26.20;;;16.85;;
23608;SDS011;11982;50.810;4.442;2024-02-26T08:47:32;24.23;;;16.30;;
23608;SDS011;11982;50.810;4.442;2024-02-26T08:49:58;26.23;;;17.75;;
23608;SDS011;11982;50.810;4.442;2024-02-26T08:52:23;24.88;;;16.92;;
23608;SDS011;11982;50.810;4.442;2024-02-26T08:54:49;28.73;;;17.98;;
23608;SDS011;11982;50.810;4.442;2024-02-26T08:57:15;28.13;;;18.65;;
23608;SDS011;11982;50.810;4.442;2024-02-26T08:59:41;29.75;;;18.70;;
23608;SDS011;11982;50.810;4.442;2024-02-26T09:02:07;26.70;;;17.55;;
23608;SDS011;11982;50.810;4.442;2024-02-26T09:04:34;25.38;;;17.08;;
23608;SDS011;11982;50.810;4.442;2024-02-26T09:07:00;28.30;;;18.58;;
23608;SDS011;11982;50.810;4.442;2024-02-26T09:09:27;29.67;;;19.33;;
23608;SDS011;11982;50.810;4.442;2024-02-26T09:11:52;27.13;;;18.30;;
23608;SDS011;11982;50.810;4.442;2024-02-26T09:14:20;31.55;;;18.92;;
23608;SDS011;11982;50.810;4.442;2024-02-26T09:16:46;28.23;;;18.70;;
23608;SDS011;11982;50.810;4.442;2024-02-26T09:19:13;29.00;;;17.35;;
23608;SDS011;11982;50.810;4.442;2024-02-26T09:21:46;28.80;;;18.17;;
23608;SDS011;11982;50.810;4.442;2024-02-26T09:24:12;27.50;;;17.80;;
23608;SDS011;11982;50.810;4.442;2024-02-26T09:26:37;25.98;;;17.63;;
23608;SDS011;11982;50.810;4.442;2024-02-26T09:29:03;24.10;;;15.65;;
23608;SDS011;11982;50.810;4.442;2024-02-26T09:31:29;23.45;;;14.20;;
23608;SDS011;11982;50.810;4.442;2024-02-26T09:33:55;25.30;;;17.65;;
23608;SDS011;11982;50.810;4.442;2024-02-26T09:36:21;27.63;;;17.88;;
23608;SDS011;11982;50.810;4.442;2024-02-26T09:38:47;26.55;;;16.70;;
23608;SDS011;11982;50.810;4.442;2024-02-26T09:41:16;24.13;;;16.77;;
23608;SDS011;11982;50.810;4.442;2024-02-26T09:43:43;22.33;;;16.27;;
23608;SDS011;11982;50.810;4.442;2024-02-26T09:46:13;21.52;;;15.15;;
23608;SDS011;11982;50.810;4.442;2024-02-26T09:48:40;23.83;;;15.68;;
23608;SDS011;11982;50.810;4.442;2024-02-26T09:51:09;25.23;;;15.63;;
23608;SDS011;11982;50.810;4.442;2024-02-26T09:53:36;25.05;;;16.40;;
23608;SDS011;11982;50.810;4.442;2024-02-26T09:56:07;24.58;;;16.25;;
23608;SDS011;11982;50.810;4.442;2024-02-26T09:58:33;22.10;;;14.40;;
23608;SDS011;11982;50.810;4.442;2024-02-26T10:01:00;21.13;;;15.32;;
23608;SDS011;11982;50.810;4.442;2024-02-26T10:03:30;24.27;;;15.52;;
23608;SDS011;11982;50.810;4.442;2024-02-26T10:06:00;20.13;;;12.90;;
23608;SDS011;11982;50.810;4.442;2024-02-26T10:08:27;20.85;;;14.13;;
23608;SDS011;11982;50.810;4.442;2024-02-26T10:10:54;21.40;;;13.45;;
23608;SDS011;11982;50.810;4.442;2024-02-26T10:13:21;20.85;;;14.68;;
23608;SDS011;11982;50.810;4.442;2024-02-26T10:15:48;26.75;;;15.20;;
23608;SDS011;11982;50.810;4.442;2024-02-26T10:18:13;16.58;;;11.63;;
23608;SDS011;11982;50.810;4.442;2024-02-26T10:20:39;20.65;;;13.50;;
23608;SDS011;11982;50.810;4.442;2024-02-26T10:23:05;18.25;;;11.73;;
23608;SDS011;11982;50.810;4.442;2024-02-26T10:25:31;22.15;;;15.02;;
23608;SDS011;11982;50.810;4.442;2024-02-26T10:27:59;15.60;;;11.05;;
23608;SDS011;11982;50.810;4.442;2024-02-26T10:30:28;18.17;;;12.48;;
23608;SDS011;11982;50.810;4.442;2024-02-26T10:32:55;16.00;;;12.02;;
23608;SDS011;11982;50.810;4.442;2024-02-26T10:35:21;17.70;;;11.88;;
23608;SDS011;11982;50.810;4.442;2024-02-26T10:37:49;20.92;;;12.30;;
23608;SDS011;11982;50.810;4.442;2024-02-26T10:40:15;15.10;;;9.05;;
23608;SDS011;11982;50.810;4.442;2024-02-26T10:42:41;16.10;;;11.02;;
23608;SDS011;11982;50.810;4.442;2024-02-26T10:45:08;16.55;;;11.48;;
23608;SDS011;11982;50.810;4.442;2024-02-26T10:47:35;16.52;;;12.30;;
23608;SDS011;11982;50.810;4.442;2024-02-26T10:50:02;18.00;;;11.95;;
23608;SDS011;11982;50.810;4.442;2024-02-26T10:52:30;18.45;;;11.43;;
23608;SDS011;11982;50.810;4.442;2024-02-26T10:54:59;14.85;;;11.07;;
23608;SDS011;11982;50.810;4.442;2024-02-26T10:57:27;17.25;;;10.85;;
23608;SDS011;11982;50.810;4.442;2024-02-26T10:59:57;17.58;;;11.68;;
23608;SDS011;11982;50.810;4.442;2024-02-26T11:02:26;15.02;;;10.85;;
23608;SDS011;11982;50.810;4.442;2024-02-26T11:04:52;15.90;;;10.00;;
23608;SDS011;11982;50.810;4.442;2024-02-26T11:07:19;16.63;;;12.00;;
23608;SDS011;11982;50.810;4.442;2024-02-26T11:09:46;19.08;;;11.70;;
23608;SDS011;11982;50.810;4.442;2024-02-26T11:12:17;14.40;;;9.90;;
23608;SDS011;11982;50.810;4.442;2024-02-26T11:14:44;16.05;;;10.35;;
23608;SDS011;11982;50.810;4.442;2024-02-26T11:17:11;14.50;;;10.07;;
23608;SDS011;11982;50.810;4.442;2024-02-26T11:19:38;18.23;;;11.57;;
23608;SDS011;11982;50.810;4.442;2024-02-26T11:22:06;14.27;;;9.10;;
23608;SDS011;11982;50.810;4.442;2024-02-26T11:24:32;16.02;;;10.10;;
23608;SDS011;11982;50.810;4.442;2024-02-26T11:26:58;15.45;;;10.57;;
23608;SDS011;11982;50.810;4.442;2024-02-26T11:29:29;13.18;;;9.45;;
23608;SDS011;11982;50.810;4.442;2024-02-26T11:31:59;15.10;;;9.85;;
23608;SDS011;11982;50.810;4.442;2024-02-26T11:34:25;13.60;;;8.30;;
23608;SDS011;11982;50.810;4.442;2024-02-26T11:36:52;14.00;;;9.02;;
23608;SDS011;11982;50.810;4.442;2024-02-26T11:39:18;13.10;;;8.98;;
23608;SDS011;11982;50.810;4.442;2024-02-26T11:41:44;15.02;;;9.18;;
23608;SDS011;11982;50.810;4.442;2024-02-26T11:44:10;12.25;;;8.55;;
23608;SDS011;11982;50.810;4.442;2024-02-26T11:46:42;13.00;;;9.13;;
23608;SDS011;11982;50.810;4.442;2024-02-26T11:51:52;13.07;;;8.65;;
23608;SDS011;11982;50.810;4.442;2024-02-26T11:57:38;12.45;;;8.05;;
23608;SDS011;11982;50.810;4.442;2024-02-26T12:00:14;11.93;;;8.10;;
23608;SDS011;11982;50.810;4.442;2024-02-26T12:05:24;11.65;;;7.63;;
23608;SDS011;11982;50.810;4.442;2024-02-26T12:07:55;9.55;;;7.20;;
23608;SDS011;11982;50.810;4.442;2024-02-26T12:10:31;12.63;;;8.30;;
23608;SDS011;11982;50.810;4.442;2024-02-26T12:13:13;13.13;;;8.40;;
23608;SDS011;11982;50.810;4.442;2024-02-26T12:15:43;11.50;;;8.32;;
23608;SDS011;11982;50.810;4.442;2024-02-26T12:18:18;13.35;;;8.98;;
23608;SDS011;11982;50.810;4.442;2024-02-26T12:20:44;9.50;;;6.82;;
23608;SDS011;11982;50.810;4.442;2024-02-26T12:23:14;9.57;;;7.15;;
23608;SDS011;11982;50.810;4.442;2024-02-26T12:25:43;20.15;;;15.00;;
23608;SDS011;11982;50.810;4.442;2024-02-26T12:28:09;12.75;;;8.60;;
23608;SDS011;11982;50.810;4.442;2024-02-26T12:30:34;11.85;;;8.75;;
23608;SDS011;11982;50.810;4.442;2024-02-26T12:33:00;13.13;;;9.27;;
23608;SDS011;11982;50.810;4.442;2024-02-26T12:35:26;10.75;;;8.00;;
23608;SDS011;11982;50.810;4.442;2024-02-26T12:37:53;10.52;;;8.40;;
23608;SDS011;11982;50.810;4.442;2024-02-26T12:40:19;9.32;;;5.97;;
23608;SDS011;11982;50.810;4.442;2024-02-26T12:42:45;10.45;;;8.02;;
23608;SDS011;11982;50.810;4.442;2024-02-26T12:45:12;10.38;;;7.43;;
23608;SDS011;11982;50.810;4.442;2024-02-26T12:47:39;8.93;;;7.75;;
23608;SDS011;11982;50.810;4.442;2024-02-26T12:50:06;10.23;;;7.35;;
23608;SDS011;11982;50.810;4.442;2024-02-26T12:52:33;9.48;;;6.85;;
23608;SDS011;11982;50.810;4.442;2024-02-26T12:55:01;8.88;;;7.10;;
23608;SDS011;11982;50.810;4.442;2024-02-26T12:57:28;10.25;;;7.53;;
23608;SDS011;11982;50.810;4.442;2024-02-26T12:59:58;11.98;;;7.50;;
23608;SDS011;11982;50.810;4.442;2024-02-26T13:02:24;10.65;;;7.72;;
23608;SDS011;11982;50.810;4.442;2024-02-26T13:04:51;10.27;;;7.53;;
23608;SDS011;11982;50.810;4.442;2024-02-26T13:07:18;8.85;;;7.00;;
23608;SDS011;11982;50.810;4.442;2024-02-26T13:09:45;8.82;;;7.13;;
23608;SDS011;11982;50.810;4.442;2024-02-26T13:12:11;7.60;;;6.80;;
23608;SDS011;11982;50.810;4.442;2024-02-26T13:14:38;9.15;;;7.60;;
23608;SDS011;11982;50.810;4.442;2024-02-26T13:17:04;9.02;;;7.18;;
23608;SDS011;11982;50.810;4.442;2024-02-26T13:19:30;10.65;;;7.75;;
23608;SDS011;11982;50.810;4.442;2024-02-26T13:21:56;10.95;;;7.88;;
23608;SDS011;11982;50.810;4.442;2024-02-26T13:24:28;10.40;;;8.25;;
23608;SDS011;11982;50.810;4.442;2024-02-26T13:26:56;12.10;;;8.52;;
23608;SDS011;11982;50.810;4.442;2024-02-26T13:29:22;11.63;;;8.80;;
23608;SDS011;11982;50.810;4.442;2024-02-26T13:31:54;13.40;;;10.43;;
23608;SDS011;11982;50.810;4.442;2024-02-26T13:34:26;13.75;;;9.68;;
23608;SDS011;11982;50.810;4.442;2024-02-26T13:36:56;13.95;;;9.95;;
23608;SDS011;11982;50.810;4.442;2024-02-26T13:39:25;13.38;;;10.48;;
23608;SDS011;11982;50.810;4.442;2024-02-26T13:41:51;14.18;;;10.18;;
23608;SDS011;11982;50.810;4.442;2024-02-26T13:44:19;16.55;;;10.80;;
23608;SDS011;11982;50.810;4.442;2024-02-26T13:46:45;16.23;;;11.90;;
23608;SDS011;11982;50.810;4.442;2024-02-26T13:49:11;17.75;;;12.23;;
23608;SDS011;11982;50.810;4.442;2024-02-26T13:51:36;19.58;;;12.88;;
23608;SDS011;11982;50.810;4.442;2024-02-26T13:54:03;19.67;;;12.30;;
23608;SDS011;11982;50.810;4.442;2024-02-26T13:56:29;18.17;;;12.32;;
23608;SDS011;11982;50.810;4.442;2024-02-26T13:58:55;17.75;;;11.43;;
23608;SDS011;11982;50.810;4.442;2024-02-26T14:01:21;21.13;;;13.82;;
23608;SDS011;11982;50.810;4.442;2024-02-26T14:03:47;23.15;;;14.48;;
23608;SDS011;11982;50.810;4.442;2024-02-26T14:06:13;21.52;;;14.63;;
23608;SDS011;11982;50.810;4.442;2024-02-26T14:08:39;22.88;;;14.85;;
23608;SDS011;11982;50.810;4.442;2024-02-26T14:11:06;25.45;;;14.73;;
23608;SDS011;11982;50.810;4.442;2024-02-26T14:13:31;22.70;;;14.80;;
23608;SDS011;11982;50.810;4.442;2024-02-26T14:15:57;24.52;;;14.80;;
23608;SDS011;11982;50.810;4.442;2024-02-26T14:18:23;24.65;;;16.00;;
23608;SDS011;11982;50.810;4.442;2024-02-26T14:20:49;25.42;;;16.33;;
23608;SDS011;11982;50.810;4.442;2024-02-26T14:23:15;26.70;;;16.35;;
23608;SDS011;11982;50.810;4.442;2024-02-26T14:25:40;23.60;;;15.70;;
23608;SDS011;11982;50.810;4.442;2024-02-26T14:28:06;27.45;;;14.63;;
23608;SDS011;11982;50.810;4.442;2024-02-26T14:30:32;23.70;;;15.25;;
23608;SDS011;11982;50.810;4.442;2024-02-26T14:32:58;27.35;;;14.98;;
23608;SDS011;11982;50.810;4.442;2024-02-26T14:35:23;25.38;;;13.98;;
23608;SDS011;11982;50.810;4.442;2024-02-26T14:37:50;22.15;;;14.15;;
23608;SDS011;11982;50.810;4.442;2024-02-26T14:40:16;23.77;;;15.13;;